Time;durP1;ratioP1;P1;durP2;ratioP2;P2;SDS_P1;SDS_P2;PMS_P1;PMS_P2;Temp;Humidity;BMP_temperature;BMP_pressure;BME280_temperature;BME280_humidity;BME280_pressure;Samples;Min_cycle;Max_cycle;Signal;HPM_P1;HPM_P2
2023/06/25 00:01:50;;;;;;;8.27;6.37;;;20.90;99.90;;;;;;5069404;28;20212;-78
2023/06/25 00:04:16;;;;;;;5.82;5.32;;;20.90;99.90;;;;;;5069113;28;20824;-79
2023/06/25 00:06:45;;;;;;;6.72;6.22;;;20.90;99.90;;;;;;5068716;28;20274;-79
2023/06/25 00:09:12;;;;;;;6.87;5.57;;;20.90;99.90;;;;;;5068879;28;20242;-76
2023/06/25 00:11:40;;;;;;;6.33;5.83;;;20.80;99.90;;;;;;5068178;28;20591;-78
2023/06/25 00:14:07;;;;;;;6.17;5.67;;;20.80;99.90;;;;;;5068845;28;20707;-78
2023/06/25 00:16:34;;;;;;;6.53;6.03;;;20.80;99.90;;;;;;5068228;28;20322;-76
2023/06/25 00:19:01;;;;;;;6.47;6.07;;;20.80;99.90;;;;;;5068508;28;20206;-77
2023/06/25 00:21:28;;;;;;;6.87;6.17;;;20.70;99.90;;;;;;5068563;28;20303;-77
2023/06/25 00:23:56;;;;;;;8.37;5.80;;;20.70;99.90;;;;;;5068974;28;20295;-77
2023/06/25 00:26:23;;;;;;;9.50;6.80;;;20.70;99.90;;;;;;5068202;28;20325;-77
2023/06/25 00:28:51;;;;;;;10.37;6.67;;;20.70;99.90;;;;;;5068256;28;20310;-77
2023/06/25 00:31:17;;;;;;;14.37;6.40;;;20.70;99.90;;;;;;5067777;28;20216;-77
2023/06/25 00:33:49;;;;;;;12.97;6.30;;;20.60;99.90;;;;;;5048049;28;20769;-77
2023/06/25 00:36:16;;;;;;;8.53;5.80;;;20.60;99.90;;;;;;5060937;28;20222;-77
2023/06/25 00:38:44;;;;;;;7.32;6.20;;;20.60;99.90;;;;;;5048628;28;20291;-78
2023/06/25 00:41:13;;;;;;;7.10;6.40;;;20.50;99.90;;;;;;5048309;28;20240;-78
2023/06/25 00:43:42;;;;;;;7.40;6.20;;;20.60;99.90;;;;;;5068180;28;20212;-79
2023/06/25 00:46:12;;;;;;;8.07;6.03;;;20.50;99.90;;;;;;5067832;28;20617;-78
2023/06/25 00:48:40;;;;;;;8.00;6.10;;;20.50;99.90;;;;;;5068188;28;20736;-78
2023/06/25 00:51:11;;;;;;;6.95;5.82;;;20.50;99.90;;;;;;5068135;28;20272;-78
2023/06/25 00:53:39;;;;;;;7.60;6.83;;;20.50;99.90;;;;;;5067778;28;20645;-78
2023/06/25 00:56:06;;;;;;;6.43;5.90;;;20.50;99.90;;;;;;5067878;28;20660;-77
2023/06/25 00:58:38;;;;;;;5.90;5.50;;;20.50;99.90;;;;;;5067521;28;20293;-76
2023/06/25 01:01:11;;;;;;;7.22;5.88;;;20.50;99.90;;;;;;5067696;28;20191;-77
2023/06/25 01:03:45;;;;;;;6.60;6.00;;;20.50;99.90;;;;;;5067601;28;20203;-79
2023/06/25 01:06:17;;;;;;;7.37;6.67;;;20.50;99.90;;;;;;5066990;28;20715;-78
2023/06/25 01:08:49;;;;;;;6.90;6.07;;;20.50;99.90;;;;;;5068021;28;20308;-78
2023/06/25 01:11:15;;;;;;;6.57;5.97;;;20.50;99.90;;;;;;5067588;28;20285;-79
2023/06/25 01:13:44;;;;;;;6.47;5.90;;;20.60;99.90;;;;;;5067989;28;20298;-79
2023/06/25 01:16:11;;;;;;;5.43;5.13;;;20.60;99.90;;;;;;5067661;28;20211;-76
2023/06/25 01:18:39;;;;;;;6.22;5.57;;;20.60;99.90;;;;;;5067206;28;20737;-76
2023/06/25 01:21:07;;;;;;;9.20;6.00;;;20.60;99.90;;;;;;5067362;28;20733;-76
2023/06/25 01:23:36;;;;;;;7.00;6.15;;;20.70;99.90;;;;;;5067129;28;20204;-76
2023/06/25 01:26:03;;;;;;;6.47;5.88;;;20.60;99.90;;;;;;5066516;28;21142;-76
2023/06/25 01:28:30;;;;;;;7.20;6.20;;;20.60;99.90;;;;;;5067226;28;20293;-76
2023/06/25 01:30:58;;;;;;;6.17;5.57;;;20.60;99.90;;;;;;5066556;28;20203;-76
2023/06/25 01:33:26;;;;;;;6.37;5.87;;;20.60;99.90;;;;;;5066184;28;20720;-76
2023/06/25 01:35:53;;;;;;;6.63;6.03;;;20.60;99.90;;;;;;5066446;28;20247;-76
2023/06/25 01:38:20;;;;;;;6.93;6.20;;;20.60;99.90;;;;;;5066378;28;20710;-76
2023/06/25 01:40:48;;;;;;;6.57;5.97;;;20.60;99.90;;;;;;5066443;28;20245;-76
2023/06/25 01:43:15;;;;;;;6.47;5.97;;;20.50;99.90;;;;;;5066779;28;20214;-76
2023/06/25 01:45:42;;;;;;;7.30;6.77;;;20.50;99.90;;;;;;5065876;28;20276;-76
2023/06/25 01:48:09;;;;;;;8.40;7.20;;;20.50;99.90;;;;;;5066885;28;20277;-76
2023/06/25 01:50:36;;;;;;;7.13;6.63;;;20.50;99.90;;;;;;5066514;28;20206;-76
2023/06/25 01:53:03;;;;;;;6.37;5.97;;;20.50;99.90;;;;;;5066433;28;20294;-76
2023/06/25 01:55:30;;;;;;;7.50;6.90;;;20.50;99.90;;;;;;5066162;28;20219;-76
2023/06/25 01:57:58;;;;;;;7.53;6.80;;;20.50;99.90;;;;;;5066575;28;20238;-75
2023/06/25 02:00:25;;;;;;;7.33;6.63;;;20.50;99.90;;;;;;5066068;28;20286;-76
2023/06/25 02:02:52;;;;;;;7.30;6.63;;;20.50;99.90;;;;;;5066498;28;20219;-76
2023/06/25 02:05:18;;;;;;;7.22;6.57;;;20.50;99.90;;;;;;5066167;28;20211;-75
2023/06/25 02:07:45;;;;;;;7.20;6.63;;;20.50;99.90;;;;;;5050535;28;20218;-75
2023/06/25 02:10:15;;;;;;;7.53;6.77;;;20.50;99.90;;;;;;5065832;28;20227;-75
2023/06/25 02:12:42;;;;;;;7.83;6.47;;;20.50;99.90;;;;;;5065895;28;20265;-75
2023/06/25 02:15:11;;;;;;;7.57;6.80;;;20.50;99.90;;;;;;5066190;28;20213;-75
2023/06/25 02:17:38;;;;;;;6.83;6.43;;;20.50;99.90;;;;;;5066377;28;20294;-75
2023/06/25 02:20:06;;;;;;;7.40;6.80;;;20.50;99.90;;;;;;5066171;28;20247;-75
2023/06/25 02:22:33;;;;;;;8.00;7.30;;;20.50;99.90;;;;;;5065501;28;20577;-75
2023/06/25 02:25:00;;;;;;;7.57;6.83;;;20.50;99.90;;;;;;5065756;28;20203;-77
2023/06/25 02:27:26;;;;;;;7.33;6.60;;;20.50;99.90;;;;;;5065667;28;20314;-77
2023/06/25 02:29:53;;;;;;;7.20;6.70;;;20.50;99.90;;;;;;5066582;28;20561;-78
2023/06/25 02:32:22;;;;;;;7.97;7.28;;;20.50;99.90;;;;;;5065683;28;20294;-77
2023/06/25 02:34:48;;;;;;;7.43;6.83;;;20.50;99.90;;;;;;5066112;28;20452;-76
2023/06/25 02:37:16;;;;;;;8.77;7.00;;;20.50;99.90;;;;;;5066252;28;20674;-77
2023/06/25 02:39:43;;;;;;;8.50;7.60;;;20.50;99.90;;;;;;5065660;28;20274;-77
2023/06/25 02:42:10;;;;;;;7.20;6.53;;;20.50;99.90;;;;;;5048499;28;20286;-77
2023/06/25 02:44:37;;;;;;;7.60;6.97;;;20.50;99.90;;;;;;5066164;28;20215;-78
2023/06/25 02:47:04;;;;;;;7.45;6.70;;;20.50;99.90;;;;;;5065563;28;20239;-77
2023/06/25 02:49:33;;;;;;;7.43;6.77;;;20.50;99.90;;;;;;5065744;28;20334;-77
2023/06/25 02:52:00;;;;;;;7.67;7.07;;;20.50;99.90;;;;;;5065481;28;20681;-77
2023/06/25 02:54:26;;;;;;;8.07;6.93;;;20.50;99.90;;;;;;5065734;28;20254;-77
2023/06/25 02:56:54;;;;;;;8.37;7.20;;;20.60;99.90;;;;;;5067432;28;20215;-77
2023/06/25 02:59:21;;;;;;;6.70;6.20;;;20.50;99.90;;;;;;5069759;28;20630;-77
2023/06/25 03:01:48;;;;;;;8.60;7.73;;;20.50;99.90;;;;;;5069575;28;20206;-77
2023/06/25 03:04:14;;;;;;;7.57;7.03;;;20.50;99.90;;;;;;5069741;28;20211;-77
2023/06/25 03:06:43;;;;;;;7.50;6.80;;;20.50;99.90;;;;;;5063035;28;20242;-78
2023/06/25 03:09:10;;;;;;;8.00;7.30;;;20.50;99.90;;;;;;5050327;28;20269;-79
2023/06/25 03:11:37;;;;;;;7.77;7.00;;;20.50;99.90;;;;;;5050071;28;20619;-79
2023/06/25 03:14:04;;;;;;;7.43;6.83;;;20.50;99.90;;;;;;5067688;28;20682;-79
2023/06/25 03:16:31;;;;;;;8.77;7.90;;;20.50;99.90;;;;;;5069595;28;20298;-79
2023/06/25 03:18:58;;;;;;;9.73;7.50;;;20.50;99.90;;;;;;5069613;28;20208;-79
2023/06/25 03:21:25;;;;;;;7.53;6.87;;;20.50;99.90;;;;;;5069243;28;20290;-78
2023/06/25 03:23:53;;;;;;;8.25;7.47;;;20.50;99.90;;;;;;5069762;28;20298;-78
2023/06/25 03:26:20;;;;;;;7.70;7.00;;;20.50;99.90;;;;;;5068724;28;20737;-79
2023/06/25 03:28:47;;;;;;;8.57;7.73;;;20.50;99.90;;;;;;5069839;28;20290;-78
2023/06/25 03:31:14;;;;;;;9.77;7.30;;;20.50;99.90;;;;;;5069067;28;20670;-77
2023/06/25 03:33:41;;;;;;;10.57;7.40;;;20.50;99.90;;;;;;5069984;28;20355;-77
2023/06/25 03:36:08;;;;;;;8.07;6.80;;;20.50;99.90;;;;;;5070056;28;20247;-77
2023/06/25 03:38:35;;;;;;;7.55;6.88;;;20.50;99.90;;;;;;5069216;28;20210;-76
2023/06/25 03:41:04;;;;;;;8.63;7.83;;;20.50;99.90;;;;;;5069414;28;20327;-79
2023/06/25 03:43:31;;;;;;;7.40;6.90;;;20.50;99.90;;;;;;5069412;28;20556;-79
2023/06/25 03:45:57;;;;;;;7.10;6.60;;;20.60;99.90;;;;;;5069455;28;20231;-79
2023/06/25 03:48:24;;;;;;;7.87;7.20;;;20.50;99.90;;;;;;5069157;28;20299;-79
2023/06/25 03:50:52;;;;;;;7.15;6.65;;;20.60;99.90;;;;;;5069358;28;20318;-79
2023/06/25 03:53:18;;;;;;;8.18;7.45;;;20.50;99.90;;;;;;5068817;28;20298;-78
2023/06/25 03:55:45;;;;;;;8.03;7.27;;;20.60;99.90;;;;;;5068806;28;20214;-79
2023/06/25 03:58:14;;;;;;;9.27;7.30;;;20.60;99.90;;;;;;5068671;28;20207;-79
2023/06/25 04:00:41;;;;;;;7.68;7.07;;;20.60;99.90;;;;;;5068313;28;20298;-79
2023/06/25 04:03:08;;;;;;;8.13;7.43;;;20.60;99.90;;;;;;5068338;28;20674;-79
2023/06/25 04:05:34;;;;;;;8.13;7.43;;;20.60;99.90;;;;;;5068687;28;20203;-78
2023/06/25 04:08:01;;;;;;;7.25;6.72;;;20.60;99.90;;;;;;5068293;28;20321;-78
2023/06/25 04:10:29;;;;;;;8.67;7.83;;;20.60;99.90;;;;;;5068110;28;21077;-78
2023/06/25 04:12:55;;;;;;;7.20;6.70;;;20.60;99.90;;;;;;5068436;28;20256;-78
2023/06/25 04:15:24;;;;;;;8.10;7.27;;;20.60;99.90;;;;;;5068106;28;20304;-77
2023/06/25 04:17:51;;;;;;;8.20;6.90;;;20.60;99.90;;;;;;5068829;28;20310;-78
2023/06/25 04:20:18;;;;;;;7.63;7.03;;;20.70;99.90;;;;;;5068538;28;20294;-79
2023/06/25 04:22:45;;;;;;;7.70;7.10;;;20.70;99.90;;;;;;5068166;28;20207;-78
2023/06/25 04:25:12;;;;;;;7.43;6.93;;;20.70;99.90;;;;;;5068666;28;20316;-78
2023/06/25 04:27:39;;;;;;;7.85;7.25;;;20.70;99.90;;;;;;5068833;28;20315;-78
2023/06/25 04:30:07;;;;;;;7.53;6.93;;;20.70;99.90;;;;;;5068606;28;20326;-78
2023/06/25 04:32:35;;;;;;;7.50;6.83;;;20.70;99.90;;;;;;5068850;28;20284;-78
2023/06/25 04:35:02;;;;;;;8.33;7.57;;;20.70;99.90;;;;;;5068381;28;20302;-78
2023/06/25 04:37:29;;;;;;;8.43;7.55;;;20.70;99.90;;;;;;5068339;28;20594;-78
2023/06/25 04:39:56;;;;;;;9.10;7.67;;;20.70;99.90;;;;;;5067529;28;20242;-78
2023/06/25 04:42:23;;;;;;;8.03;7.33;;;20.80;99.90;;;;;;5067878;28;20207;-78
2023/06/25 04:44:53;;;;;;;7.53;6.93;;;20.80;99.90;;;;;;5068235;28;20654;-77
2023/06/25 04:47:20;;;;;;;7.57;6.85;;;20.80;99.90;;;;;;5067873;28;20318;-77
2023/06/25 04:49:48;;;;;;;7.43;6.78;;;20.80;99.90;;;;;;5067682;28;20287;-78
2023/06/25 04:52:18;;;;;;;7.57;6.83;;;20.80;99.90;;;;;;5067790;28;20286;-77
2023/06/25 04:54:45;;;;;;;7.10;6.50;;;20.90;99.90;;;;;;5067551;28;20199;-78
2023/06/25 04:57:12;;;;;;;10.30;7.30;;;20.90;99.90;;;;;;5067645;28;20582;-77
2023/06/25 04:59:39;;;;;;;7.95;6.85;;;20.90;99.90;;;;;;5067552;28;20208;-77
2023/06/25 05:02:06;;;;;;;7.10;6.47;;;20.90;99.90;;;;;;5067616;28;20221;-77
2023/06/25 05:04:33;;;;;;;7.30;6.80;;;20.90;99.90;;;;;;5067471;28;20665;-77
2023/06/25 05:07:02;;;;;;;7.97;6.30;;;20.90;99.90;;;;;;5067539;28;20721;-77
2023/06/25 05:09:28;;;;;;;7.53;6.70;;;20.90;99.90;;;;;;5067787;28;20203;-77
2023/06/25 05:11:55;;;;;;;7.00;6.13;;;21.00;99.90;;;;;;5067586;28;20334;-77
2023/06/25 05:14:22;;;;;;;7.43;6.63;;;21.00;99.90;;;;;;5067095;28;20211;-77
2023/06/25 05:16:49;;;;;;;6.87;6.37;;;21.10;99.90;;;;;;5067269;28;20215;-77
2023/06/25 05:19:16;;;;;;;7.53;6.82;;;21.10;99.90;;;;;;5066696;28;20230;-78
2023/06/25 05:21:43;;;;;;;7.20;6.50;;;21.10;99.90;;;;;;5066544;28;20308;-77
2023/06/25 05:24:11;;;;;;;8.60;6.53;;;21.20;99.90;;;;;;5054261;28;20235;-79
2023/06/25 05:26:38;;;;;;;7.68;7.05;;;21.20;99.90;;;;;;5061012;28;20223;-77
2023/06/25 05:29:05;;;;;;;6.93;6.35;;;21.20;99.90;;;;;;5066759;28;20714;-78
2023/06/25 05:31:32;;;;;;;7.20;6.40;;;21.20;99.90;;;;;;5066995;28;20646;-78
2023/06/25 05:33:59;;;;;;;7.30;6.67;;;21.30;99.90;;;;;;5067287;28;20207;-78
2023/06/25 05:36:26;;;;;;;7.45;6.72;;;21.30;99.90;;;;;;5067219;28;20337;-78
2023/06/25 05:38:53;;;;;;;7.00;6.50;;;21.30;99.90;;;;;;5067271;28;20227;-78
2023/06/25 05:41:21;;;;;;;7.97;7.00;;;21.40;99.90;;;;;;5066946;28;20266;-78
2023/06/25 05:43:48;;;;;;;7.60;6.78;;;21.40;99.90;;;;;;5067526;28;20291;-78
2023/06/25 05:46:15;;;;;;;8.07;7.37;;;21.40;99.90;;;;;;5066997;28;20681;-78
2023/06/25 05:48:42;;;;;;;7.60;6.90;;;21.40;99.90;;;;;;5067331;28;20356;-78
2023/06/25 05:51:09;;;;;;;7.60;6.95;;;21.40;99.90;;;;;;5066608;28;20291;-77
2023/06/25 05:53:40;;;;;;;7.32;6.72;;;21.40;99.90;;;;;;5066371;28;20662;-78
2023/06/25 05:56:08;;;;;;;7.45;6.95;;;21.50;99.90;;;;;;5066940;28;20242;-77
2023/06/25 05:58:37;;;;;;;7.97;7.32;;;21.50;99.90;;;;;;5066367;28;20689;-78
2023/06/25 06:01:04;;;;;;;8.02;7.38;;;21.50;99.90;;;;;;5066237;28;20665;-78
2023/06/25 06:03:31;;;;;;;8.00;7.30;;;21.50;99.90;;;;;;5066301;28;20204;-78
2023/06/25 06:05:58;;;;;;;8.67;7.93;;;21.50;99.90;;;;;;5065368;28;20207;-77
2023/06/25 06:08:25;;;;;;;8.48;7.70;;;21.60;99.90;;;;;;5046268;28;20754;-78
2023/06/25 06:10:52;;;;;;;7.97;7.38;;;21.60;99.90;;;;;;5046494;28;20347;-77
2023/06/25 06:13:19;;;;;;;8.48;7.75;;;21.60;99.90;;;;;;5058394;28;20221;-77
2023/06/25 06:15:48;;;;;;;8.80;7.97;;;21.60;99.90;;;;;;5066102;28;20235;-77
2023/06/25 06:18:14;;;;;;;8.27;7.57;;;21.70;99.90;;;;;;5066268;28;20773;-77
2023/06/25 06:20:41;;;;;;;8.48;7.85;;;21.70;99.90;;;;;;5066547;28;20289;-78
2023/06/25 06:23:08;;;;;;;8.98;8.13;;;21.70;99.90;;;;;;5066306;28;20310;-76
2023/06/25 06:25:35;;;;;;;8.43;7.65;;;21.70;99.90;;;;;;5066205;28;20290;-77
2023/06/25 06:28:02;;;;;;;8.68;8.00;;;21.70;99.90;;;;;;5065912;28;20231;-79
2023/06/25 06:30:29;;;;;;;10.55;7.68;;;21.80;99.90;;;;;;5066189;28;20701;-77
2023/06/25 06:32:57;;;;;;;8.88;8.18;;;21.80;99.90;;;;;;5065789;28;20294;-77
2023/06/25 06:35:24;;;;;;;8.43;7.65;;;21.90;99.90;;;;;;5066171;28;20294;-77
2023/06/25 06:37:51;;;;;;;8.95;8.15;;;21.90;99.90;;;;;;5065958;28;20249;-77
2023/06/25 06:40:18;;;;;;;9.32;8.63;;;21.90;99.90;;;;;;5065794;28;20243;-77
2023/06/25 06:42:46;;;;;;;8.27;7.72;;;21.90;99.90;;;;;;5065893;28;20219;-78
2023/06/25 06:45:13;;;;;;;8.90;8.05;;;22.00;99.90;;;;;;5065102;28;20208;-76
2023/06/25 06:47:39;;;;;;;8.80;8.10;;;22.00;99.90;;;;;;5065915;28;20296;-76
2023/06/25 06:50:09;;;;;;;9.25;8.55;;;22.10;99.90;;;;;;5065730;28;20260;-76
2023/06/25 06:52:36;;;;;;;10.10;8.77;;;22.10;99.90;;;;;;5065634;28;20265;-75
2023/06/25 06:55:03;;;;;;;8.75;8.10;;;22.20;99.90;;;;;;5066231;28;20226;-77
2023/06/25 06:57:29;;;;;;;10.05;9.07;;;22.20;99.90;;;;;;5065865;28;20677;-76
2023/06/25 06:59:56;;;;;;;9.70;8.70;;;22.20;99.90;;;;;;5066240;28;20234;-76
2023/06/25 07:02:23;;;;;;;9.40;8.65;;;22.30;99.90;;;;;;5066544;28;20211;-77
2023/06/25 07:04:51;;;;;;;12.15;10.02;;;22.30;99.90;;;;;;5065800;28;20732;-76
2023/06/25 07:07:19;;;;;;;9.57;8.80;;;22.30;99.90;;;;;;5065824;28;20660;-77
2023/06/25 07:09:53;;;;;;;9.02;8.23;;;22.40;99.90;;;;;;5065997;28;20231;-76
2023/06/25 07:12:20;;;;;;;9.68;8.68;;;22.40;99.90;;;;;;5065489;28;20587;-78
2023/06/25 07:14:47;;;;;;;8.75;8.05;;;22.40;99.90;;;;;;5065848;28;20211;-78
2023/06/25 07:17:14;;;;;;;9.07;8.20;;;22.50;99.90;;;;;;5065774;28;20266;-79
2023/06/25 07:19:41;;;;;;;8.82;8.02;;;22.50;99.90;;;;;;5065760;28;20235;-78
2023/06/25 07:22:08;;;;;;;9.60;8.63;;;22.50;99.90;;;;;;5065505;28;20196;-78
2023/06/25 07:24:36;;;;;;;8.70;7.82;;;22.50;99.90;;;;;;5065677;28;20257;-77
2023/06/25 07:27:04;;;;;;;9.13;8.32;;;22.50;99.90;;;;;;5065475;28;20568;-78
2023/06/25 07:29:30;;;;;;;8.38;7.72;;;22.60;99.90;;;;;;5065334;28;20207;-77
2023/06/25 07:31:57;;;;;;;8.48;7.57;;;22.60;99.90;;;;;;5065181;28;20311;-77
2023/06/25 07:34:24;;;;;;;9.20;8.25;;;22.70;99.90;;;;;;5064751;28;20210;-76
2023/06/25 07:36:51;;;;;;;14.98;13.13;;;22.70;99.90;;;;;;5065403;28;20682;-77
2023/06/25 07:39:29;;;;;;;8.25;7.57;;;22.70;99.90;;;;;;5065605;28;20265;-79
2023/06/25 07:41:57;;;;;;;8.90;8.20;;;22.80;99.90;;;;;;5065809;28;20274;-77
2023/06/25 07:44:24;;;;;;;8.73;8.00;;;22.80;99.90;;;;;;5067826;28;20204;-78
2023/06/25 07:46:51;;;;;;;8.68;7.97;;;22.90;99.90;;;;;;5068948;28;20211;-77
2023/06/25 07:49:18;;;;;;;8.02;7.43;;;22.90;99.90;;;;;;5069058;28;20709;-77
2023/06/25 07:51:50;;;;;;;8.90;8.05;;;22.90;99.90;;;;;;5069114;28;20239;-77
2023/06/25 07:54:18;;;;;;;8.48;7.68;;;23.00;99.90;;;;;;5068974;28;20195;-76
2023/06/25 07:56:45;;;;;;;8.00;7.40;;;23.10;99.90;;;;;;5069088;28;20262;-77
2023/06/25 07:59:14;;;;;;;8.75;8.07;;;23.10;99.90;;;;;;5069103;28;20218;-75
2023/06/25 08:01:41;;;;;;;8.75;7.88;;;23.10;99.90;;;;;;5068571;28;20207;-74
2023/06/25 08:04:08;;;;;;;9.32;8.55;;;23.20;99.90;;;;;;5068370;28;20229;-75
2023/06/25 08:06:35;;;;;;;8.60;8.00;;;23.20;99.90;;;;;;5061969;28;20269;-74
2023/06/25 08:09:02;;;;;;;8.68;7.88;;;23.30;99.90;;;;;;5047422;28;20231;-74
2023/06/25 08:11:29;;;;;;;7.97;7.32;;;23.30;99.90;;;;;;5063113;28;20251;-74
2023/06/25 08:13:56;;;;;;;8.05;7.43;;;23.30;99.90;;;;;;5066049;28;20210;-74
2023/06/25 08:16:24;;;;;;;7.75;7.25;;;23.40;99.90;;;;;;5065988;28;20207;-74
2023/06/25 08:18:51;;;;;;;8.20;7.40;;;23.40;99.90;;;;;;5065888;28;20303;-74
2023/06/25 08:21:18;;;;;;;7.78;7.07;;;23.50;99.90;;;;;;5066397;28;20315;-74
2023/06/25 08:23:45;;;;;;;7.47;6.97;;;23.60;99.90;;;;;;5066510;28;20203;-74
2023/06/25 08:26:15;;;;;;;7.30;6.80;;;23.60;99.90;;;;;;5066656;28;20211;-74
2023/06/25 08:28:42;;;;;;;7.30;6.80;;;23.70;99.90;;;;;;5066521;28;20228;-74
2023/06/25 08:31:09;;;;;;;6.57;5.97;;;23.70;99.90;;;;;;5066273;28;20285;-74
2023/06/25 08:33:38;;;;;;;7.90;7.18;;;23.80;99.90;;;;;;5065566;28;20849;-74
2023/06/25 08:36:05;;;;;;;7.68;7.07;;;23.80;99.90;;;;;;5065560;28;20285;-74
2023/06/25 08:38:32;;;;;;;6.95;6.40;;;23.80;99.90;;;;;;5065486;28;20625;-74
2023/06/25 08:41:00;;;;;;;7.05;6.55;;;23.90;99.90;;;;;;5065611;28;20285;-74
2023/06/25 08:43:27;;;;;;;6.85;6.45;;;23.90;99.90;;;;;;5065235;28;20295;-74
2023/06/25 08:45:54;;;;;;;6.50;6.05;;;23.90;99.90;;;;;;5065991;28;20333;-74
2023/06/25 08:48:23;;;;;;;7.78;6.18;;;24.00;99.90;;;;;;5065226;28;20231;-74
2023/06/25 08:50:56;;;;;;;7.22;6.63;;;24.10;99.90;;;;;;5065600;28;20662;-74
2023/06/25 08:53:26;;;;;;;6.68;6.18;;;24.10;99.90;;;;;;5065308;28;20669;-74
2023/06/25 08:55:55;;;;;;;7.30;6.60;;;24.20;99.90;;;;;;5065202;28;20573;-74
2023/06/25 08:58:24;;;;;;;6.57;6.07;;;24.30;99.90;;;;;;5065830;28;20207;-74
2023/06/25 09:00:51;;;;;;;6.03;5.50;;;24.30;99.90;;;;;;5065704;28;20214;-74
2023/06/25 09:03:18;;;;;;;6.15;5.68;;;24.30;99.90;;;;;;5065466;28;20930;-74
2023/06/25 09:05:54;;;;;;;6.82;6.15;;;24.40;99.90;;;;;;5065719;28;20222;-74
2023/06/25 09:08:21;;;;;;;6.53;6.10;;;24.40;99.90;;;;;;5046248;28;20226;-74
2023/06/25 09:10:51;;;;;;;6.55;6.05;;;24.50;99.90;;;;;;5046389;28;20228;-74
2023/06/25 09:13:22;;;;;;;6.03;5.63;;;24.60;99.90;;;;;;5060617;28;20211;-74
2023/06/25 09:15:49;;;;;;;7.25;6.03;;;24.60;99.90;;;;;;5065282;28;20204;-74
2023/06/25 09:18:20;;;;;;;5.80;5.32;;;24.60;99.90;;;;;;5065589;28;20237;-74
2023/06/25 09:20:47;;;;;;;6.10;5.70;;;24.70;99.90;;;;;;5065340;28;20191;-74
2023/06/25 09:23:21;;;;;;;6.18;5.80;;;24.70;99.90;;;;;;5065250;28;20211;-74
2023/06/25 09:25:49;;;;;;;8.05;5.88;;;24.70;99.90;;;;;;5065358;28;20326;-74
2023/06/25 09:28:16;;;;;;;6.72;5.40;;;24.70;99.90;;;;;;5064769;28;20242;-74
2023/06/25 09:30:43;;;;;;;6.38;5.30;;;24.80;99.90;;;;;;5065055;28;20200;-74
2023/06/25 09:33:11;;;;;;;5.95;5.45;;;24.80;99.90;;;;;;5065019;28;20214;-74
2023/06/25 09:35:39;;;;;;;6.25;5.72;;;24.90;99.90;;;;;;5064943;28;20253;-74
2023/06/25 09:38:06;;;;;;;6.25;5.57;;;24.90;99.90;;;;;;5064491;28;20662;-74
2023/06/25 09:40:35;;;;;;;5.70;5.20;;;25.00;99.90;;;;;;5064208;28;20561;-74
2023/06/25 09:43:05;;;;;;;5.60;5.20;;;25.00;99.90;;;;;;5064675;28;20203;-74
2023/06/25 09:45:33;;;;;;;5.47;5.18;;;25.10;99.90;;;;;;5064752;28;21128;-74
2023/06/25 09:47:59;;;;;;;7.25;5.38;;;25.10;99.90;;;;;;5065283;28;20780;-74
2023/06/25 09:50:28;;;;;;;6.10;5.50;;;25.30;99.90;;;;;;5065343;28;20215;-74
2023/06/25 09:52:56;;;;;;;5.72;5.32;;;25.30;99.90;;;;;;5065003;28;20207;-74
2023/06/25 09:55:24;;;;;;;5.72;5.10;;;25.40;99.90;;;;;;5064470;28;20298;-74
2023/06/25 09:57:54;;;;;;;8.13;5.75;;;25.40;99.90;;;;;;5064111;28;20209;-74
2023/06/25 10:00:22;;;;;;;5.53;4.97;;;25.40;99.90;;;;;;5063691;28;20265;-74
2023/06/25 10:02:50;;;;;;;6.22;5.82;;;25.40;99.90;;;;;;5064147;28;20203;-74
2023/06/25 10:05:17;;;;;;;6.22;5.63;;;25.40;99.90;;;;;;5064163;28;20208;-74
2023/06/25 10:07:45;;;;;;;6.00;5.50;;;25.40;99.90;;;;;;5063054;28;20307;-74
2023/06/25 10:10:21;;;;;;;6.43;5.82;;;25.40;99.90;;;;;;5064323;28;20223;-74
2023/06/25 10:12:49;;;;;;;5.65;5.18;;;25.40;99.90;;;;;;5063853;28;20203;-74
2023/06/25 10:15:28;;;;;;;8.57;5.32;;;25.50;99.90;;;;;;5063721;28;20219;-74
2023/06/25 10:17:57;;;;;;;5.35;4.90;;;25.50;99.90;;;;;;5063927;28;20195;-74
2023/06/25 10:20:30;;;;;;;5.88;5.45;;;25.60;99.90;;;;;;5063672;28;20728;-74
2023/06/25 10:23:10;;;;;;;6.07;5.55;;;25.60;99.90;;;;;;5063607;28;20686;-74
2023/06/25 10:25:39;;;;;;;5.78;5.25;;;25.60;99.90;;;;;;5064098;28;20214;-74
2023/06/25 10:28:08;;;;;;;7.45;5.03;;;25.60;99.90;;;;;;5064470;28;20211;-74
2023/06/25 10:30:42;;;;;;;5.43;5.10;;;25.70;99.90;;;;;;5064155;28;20766;-74
2023/06/25 10:33:09;;;;;;;6.53;5.72;;;25.80;99.90;;;;;;5064392;28;20237;-74
2023/06/25 10:35:39;;;;;;;5.57;5.18;;;25.70;99.90;;;;;;5063538;28;20681;-74
2023/06/25 10:38:06;;;;;;;6.25;5.68;;;25.70;99.90;;;;;;5063889;28;20243;-74
2023/06/25 10:40:34;;;;;;;5.60;5.10;;;25.70;99.90;;;;;;5063085;28;20245;-74
2023/06/25 10:43:01;;;;;;;5.47;5.07;;;25.80;99.90;;;;;;5063678;28;20211;-74
2023/06/25 10:45:28;;;;;;;4.70;4.30;;;26.00;99.90;;;;;;5063426;28;20196;-74
2023/06/25 10:48:08;;;;;;;5.30;4.90;;;26.20;99.90;;;;;;5063557;28;20210;-74
2023/06/25 10:50:36;;;;;;;5.45;5.05;;;26.30;99.90;;;;;;5063719;28;20218;-74
2023/06/25 10:53:04;;;;;;;5.38;4.95;;;26.30;99.90;;;;;;5063372;28;20211;-74
2023/06/25 10:55:31;;;;;;;11.65;5.70;;;26.40;99.90;;;;;;5062973;28;20204;-74
2023/06/25 10:57:58;;;;;;;5.93;5.43;;;26.40;99.90;;;;;;5063636;28;20217;-75
2023/06/25 11:00:27;;;;;;;5.70;5.30;;;26.20;99.90;;;;;;5063654;28;20210;-74
2023/06/25 11:02:55;;;;;;;6.78;5.22;;;26.10;99.90;;;;;;5064273;28;20199;-75
2023/06/25 11:05:33;;;;;;;4.85;4.55;;;26.10;99.90;;;;;;5063620;28;20227;-74
2023/06/25 11:08:00;;;;;;;5.80;5.30;;;26.20;99.90;;;;;;5064138;28;20203;-74
2023/06/25 11:10:28;;;;;;;5.40;4.90;;;26.30;99.90;;;;;;5062409;28;20262;-74
2023/06/25 11:12:55;;;;;;;5.72;5.28;;;26.50;99.90;;;;;;5065156;28;20299;-75
2023/06/25 11:15:22;;;;;;;7.07;5.53;;;26.50;99.90;;;;;;5055834;28;20212;-75
2023/06/25 11:17:51;;;;;;;6.07;5.45;;;26.60;99.90;;;;;;5065929;28;20749;-74
2023/06/25 11:20:18;;;;;;;6.85;5.70;;;26.80;99.90;;;;;;5068899;28;20578;-74
2023/06/25 11:22:46;;;;;;;6.20;5.43;;;27.10;99.90;;;;;;5067981;28;20757;-74
2023/06/25 11:25:14;;;;;;;6.43;5.57;;;27.20;99.90;;;;;;5068794;28;20211;-74
2023/06/25 11:27:41;;;;;;;5.72;5.32;;;27.20;99.90;;;;;;5069133;28;20207;-75
2023/06/25 11:30:09;;;;;;;5.70;5.20;;;27.10;99.90;;;;;;5068338;28;20721;-75
2023/06/25 11:32:38;;;;;;;5.35;4.90;;;26.90;99.90;;;;;;5068405;28;20743;-75
2023/06/25 11:35:12;;;;;;;8.27;5.82;;;26.70;99.90;;;;;;5068884;28;20299;-75
2023/06/25 11:37:48;;;;;;;5.43;5.13;;;26.50;99.90;;;;;;5069514;28;20295;-75
2023/06/25 11:40:25;;;;;;;5.70;5.20;;;26.50;99.90;;;;;;5068516;28;20713;-74
2023/06/25 11:42:52;;;;;;;5.70;5.35;;;26.50;99.90;;;;;;5068992;28;20551;-75
2023/06/25 11:45:20;;;;;;;10.05;9.05;;;26.50;99.90;;;;;;5068562;28;20302;-75
2023/06/25 11:47:50;;;;;;;14.70;13.57;;;26.40;99.90;;;;;;5068821;28;20298;-75
2023/06/25 11:50:17;;;;;;;7.38;6.78;;;26.20;99.90;;;;;;5069086;28;20223;-75
2023/06/25 11:52:46;;;;;;;6.10;5.70;;;26.20;99.90;;;;;;5069152;28;20238;-75
2023/06/25 11:55:13;;;;;;;5.82;5.32;;;26.10;99.90;;;;;;5068753;28;20295;-75
2023/06/25 11:57:40;;;;;;;5.40;5.00;;;26.00;99.90;;;;;;5069098;28;20207;-75
2023/06/25 12:00:08;;;;;;;5.72;5.03;;;25.90;99.90;;;;;;5068288;28;20214;-76
2023/06/25 12:02:35;;;;;;;5.82;5.30;;;25.80;99.90;;;;;;5067628;28;20204;-75
2023/06/25 12:05:02;;;;;;;5.10;4.70;;;25.70;99.90;;;;;;5068486;28;20231;-75
2023/06/25 12:07:29;;;;;;;4.82;4.45;;;25.70;99.90;;;;;;5067895;28;20218;-75
2023/06/25 12:09:57;;;;;;;5.25;4.88;;;25.80;99.90;;;;;;5068332;28;20687;-74
2023/06/25 12:12:24;;;;;;;5.07;4.63;;;25.80;99.90;;;;;;5067473;28;20235;-75
2023/06/25 12:14:51;;;;;;;5.70;5.05;;;25.90;99.90;;;;;;5068502;28;20286;-75
2023/06/25 12:17:18;;;;;;;5.75;5.15;;;25.90;99.90;;;;;;5067895;28;20284;-74
2023/06/25 12:19:45;;;;;;;4.57;4.28;;;25.90;99.90;;;;;;5068424;28;20203;-75
2023/06/25 12:22:12;;;;;;;5.10;4.70;;;26.00;99.90;;;;;;5068102;28;20239;-75
2023/06/25 12:24:39;;;;;;;4.93;4.57;;;26.10;99.90;;;;;;5065868;28;20210;-75
2023/06/25 12:27:07;;;;;;;5.22;4.78;;;26.10;99.90;;;;;;5067920;28;20644;-74
2023/06/25 12:29:34;;;;;;;5.32;4.93;;;26.20;99.90;;;;;;5066895;28;20376;-75
2023/06/25 12:32:01;;;;;;;5.38;4.97;;;26.40;99.90;;;;;;5067817;28;20663;-75
2023/06/25 12:34:29;;;;;;;5.38;4.68;;;26.50;99.90;;;;;;5067838;28;20676;-75
2023/06/25 12:36:56;;;;;;;5.85;5.25;;;26.70;99.90;;;;;;5067779;28;20219;-74
2023/06/25 12:39:22;;;;;;;6.25;4.97;;;26.80;99.90;;;;;;5067650;28;20346;-74
2023/06/25 12:41:49;;;;;;;5.25;4.85;;;27.00;99.90;;;;;;5068143;28;20294;-75
2023/06/25 12:44:18;;;;;;;5.25;4.75;;;27.10;99.90;;;;;;5067496;28;20307;-75
2023/06/25 12:46:44;;;;;;;5.20;4.80;;;27.30;99.90;;;;;;5067766;28;20215;-74
2023/06/25 12:49:11;;;;;;;6.28;5.25;;;27.40;99.90;;;;;;5067170;28;20309;-75